sensor_id;sensor_type;location;lat;lon;timestamp;pressure;altitude;pressure_sealevel;temperature;humidity
74960;BME280;63518;49.572;1.106;2022-11-27T00:01:33;100173.69;;;8.04;85.11
74960;BME280;63518;49.572;1.106;2022-11-27T00:04:01;100172.72;;;7.81;83.98
74960;BME280;63518;49.572;1.106;2022-11-27T00:06:30;100188.34;;;8.26;84.23
74960;BME280;63518;49.572;1.106;2022-11-27T00:09:00;100191.03;;;7.93;83.95
74960;BME280;63518;49.572;1.106;2022-11-27T00:11:29;100172.88;;;8.20;82.95
74960;BME280;63518;49.572;1.106;2022-11-27T00:13:58;100146.09;;;7.77;83.15
74960;BME280;63518;49.572;1.106;2022-11-27T00:16:26;100165.84;;;8.07;82.36
74960;BME280;63518;49.572;1.106;2022-11-27T00:18:55;100159.91;;;7.70;83.67
74960;BME280;63518;49.572;1.106;2022-11-27T00:21:26;100161.66;;;8.05;84.06
74960;BME280;63518;49.572;1.106;2022-11-27T00:23:56;100157.59;;;7.91;84.13
74960;BME280;63518;49.572;1.106;2022-11-27T00:26:29;100156.84;;;7.95;83.66
74960;BME280;63518;49.572;1.106;2022-11-27T00:29:03;100163.78;;;8.15;83.19
74960;BME280;63518;49.572;1.106;2022-11-27T00:31:32;100153.81;;;8.08;84.44
74960;BME280;63518;49.572;1.106;2022-11-27T00:34:03;100143.56;;;8.04;83.73
74960;BME280;63518;49.572;1.106;2022-11-27T00:36:32;100158.50;;;7.96;83.91
74960;BME280;63518;49.572;1.106;2022-11-27T00:39:02;100141.94;;;7.74;84.29
74960;BME280;63518;49.572;1.106;2022-11-27T00:41:30;100141.19;;;7.79;84.00
74960;BME280;63518;49.572;1.106;2022-11-27T00:43:58;100149.66;;;8.06;83.19
74960;BME280;63518;49.572;1.106;2022-11-27T00:46:30;100139.88;;;7.81;83.54
74960;BME280;63518;49.572;1.106;2022-11-27T00:49:03;100160.31;;;8.36;82.91
74960;BME280;63518;49.572;1.106;2022-11-27T00:51:31;100148.25;;;8.20;83.73
74960;BME280;63518;49.572;1.106;2022-11-27T00:53:59;100115.69;;;7.62;83.41
74960;BME280;63518;49.572;1.106;2022-11-27T00:56:29;100128.03;;;7.93;83.63
74960;BME280;63518;49.572;1.106;2022-11-27T00:58:57;100117.34;;;7.63;83.94
74960;BME280;63518;49.572;1.106;2022-11-27T01:01:34;100140.66;;;7.94;82.71
74960;BME280;63518;49.572;1.106;2022-11-27T01:04:10;100146.13;;;7.94;83.61
74960;BME280;63518;49.572;1.106;2022-11-27T01:06:46;100133.81;;;7.79;83.71
74960;BME280;63518;49.572;1.106;2022-11-27T01:09:14;100129.19;;;7.97;84.31
74960;BME280;63518;49.572;1.106;2022-11-27T01:11:43;100144.22;;;7.66;84.76
74960;BME280;63518;49.572;1.106;2022-11-27T01:14:17;100155.84;;;8.01;84.13
74960;BME280;63518;49.572;1.106;2022-11-27T01:16:45;100125.84;;;7.78;83.80
74960;BME280;63518;49.572;1.106;2022-11-27T01:19:14;100148.94;;;7.82;84.61
74960;BME280;63518;49.572;1.106;2022-11-27T01:21:43;100137.53;;;7.73;83.46
74960;BME280;63518;49.572;1.106;2022-11-27T01:24:19;100138.59;;;7.72;84.03
74960;BME280;63518;49.572;1.106;2022-11-27T01:26:46;100126.88;;;7.89;83.44
74960;BME280;63518;49.572;1.106;2022-11-27T01:29:16;100124.41;;;8.04;83.50
74960;BME280;63518;49.572;1.106;2022-11-27T01:31:43;100123.41;;;8.10;83.41
74960;BME280;63518;49.572;1.106;2022-11-27T01:34:17;100099.88;;;7.80;83.62
74960;BME280;63518;49.572;1.106;2022-11-27T01:36:45;100087.50;;;7.61;83.46
74960;BME280;63518;49.572;1.106;2022-11-27T01:39:16;100117.94;;;7.93;83.10
74960;BME280;63518;49.572;1.106;2022-11-27T01:41:45;100120.59;;;8.05;83.12
74960;BME280;63518;49.572;1.106;2022-11-27T01:49:35;100097.53;;;8.01;83.64
74960;BME280;63518;49.572;1.106;2022-11-27T01:52:11;100082.59;;;7.63;84.27
74960;BME280;63518;49.572;1.106;2022-11-27T01:55:29;100089.28;;;7.84;84.80
74960;BME280;63518;49.572;1.106;2022-11-27T01:57:46;100086.72;;;7.94;82.73
74960;BME280;63518;49.572;1.106;2022-11-27T02:00:16;100087.91;;;7.98;83.35
74960;BME280;63518;49.572;1.106;2022-11-27T02:02:46;100096.00;;;7.76;84.52
74960;BME280;63518;49.572;1.106;2022-11-27T02:05:21;100090.34;;;7.66;84.80
74960;BME280;63518;49.572;1.106;2022-11-27T02:07:51;100088.91;;;8.09;83.54
74960;BME280;63518;49.572;1.106;2022-11-27T02:10:40;100085.38;;;7.97;83.76
74960;BME280;63518;49.572;1.106;2022-11-27T02:13:35;100089.41;;;8.06;83.61
74960;BME280;63518;49.572;1.106;2022-11-27T02:16:35;100091.53;;;7.87;83.90
74960;BME280;63518;49.572;1.106;2022-11-27T02:22:07;100076.97;;;7.70;83.52
74960;BME280;63518;49.572;1.106;2022-11-27T02:30:01;100102.06;;;7.95;83.88
74960;BME280;63518;49.572;1.106;2022-11-27T02:32:56;100081.97;;;7.90;84.45
74960;BME280;63518;49.572;1.106;2022-11-27T02:35:48;100077.13;;;8.08;83.89
74960;BME280;63518;49.572;1.106;2022-11-27T02:38:23;100068.06;;;8.08;83.73
74960;BME280;63518;49.572;1.106;2022-11-27T02:41:10;100054.38;;;8.08;84.00
74960;BME280;63518;49.572;1.106;2022-11-27T02:43:47;100044.16;;;7.87;83.56
74960;BME280;63518;49.572;1.106;2022-11-27T02:46:18;100043.66;;;7.90;84.30
74960;BME280;63518;49.572;1.106;2022-11-27T02:48:50;100038.78;;;7.92;83.93
74960;BME280;63518;49.572;1.106;2022-11-27T02:51:25;100037.34;;;7.89;83.38
74960;BME280;63518;49.572;1.106;2022-11-27T02:53:58;100013.06;;;7.76;83.58
74960;BME280;63518;49.572;1.106;2022-11-27T02:56:30;100028.91;;;7.91;83.70
74960;BME280;63518;49.572;1.106;2022-11-27T02:59:02;100028.13;;;7.78;84.00
74960;BME280;63518;49.572;1.106;2022-11-27T03:01:37;100017.44;;;7.77;84.37
74960;BME280;63518;49.572;1.106;2022-11-27T03:04:13;100020.84;;;8.01;84.72
74960;BME280;63518;49.572;1.106;2022-11-27T03:06:53;100022.84;;;7.89;84.21
74960;BME280;63518;49.572;1.106;2022-11-27T03:09:28;100027.31;;;7.95;83.78
74960;BME280;63518;49.572;1.106;2022-11-27T03:12:00;100005.50;;;7.83;83.40
74960;BME280;63518;49.572;1.106;2022-11-27T03:14:33;99986.66;;;7.70;83.69
74960;BME280;63518;49.572;1.106;2022-11-27T03:20:16;99990.50;;;7.86;84.06
74960;BME280;63518;49.572;1.106;2022-11-27T03:22:48;99988.69;;;7.74;83.84
74960;BME280;63518;49.572;1.106;2022-11-27T03:25:17;99982.16;;;7.97;83.68
74960;BME280;63518;49.572;1.106;2022-11-27T03:27:57;99998.78;;;7.91;84.76
74960;BME280;63518;49.572;1.106;2022-11-27T03:30:26;99997.03;;;8.01;84.09
74960;BME280;63518;49.572;1.106;2022-11-27T03:32:55;100001.03;;;7.77;84.68
74960;BME280;63518;49.572;1.106;2022-11-27T03:35:25;99985.69;;;7.76;85.02
74960;BME280;63518;49.572;1.106;2022-11-27T03:37:53;99971.06;;;7.70;84.64
74960;BME280;63518;49.572;1.106;2022-11-27T03:40:28;99977.13;;;7.72;84.51
74960;BME280;63518;49.572;1.106;2022-11-27T03:43:03;99968.75;;;7.96;84.26
74960;BME280;63518;49.572;1.106;2022-11-27T03:45:56;99970.22;;;8.03;84.09
74960;BME280;63518;49.572;1.106;2022-11-27T03:48:32;99971.03;;;8.21;83.24
74960;BME280;63518;49.572;1.106;2022-11-27T03:53:51;99972.88;;;8.15;83.07
74960;BME280;63518;49.572;1.106;2022-11-27T03:59:21;99977.31;;;7.99;84.13
74960;BME280;63518;49.572;1.106;2022-11-27T04:01:50;99974.59;;;8.21;83.23
74960;BME280;63518;49.572;1.106;2022-11-27T04:04:24;99958.16;;;7.82;82.72
74960;BME280;63518;49.572;1.106;2022-11-27T04:06:53;99961.78;;;7.71;83.49
74960;BME280;63518;49.572;1.106;2022-11-27T04:09:24;99943.38;;;7.83;83.47
74960;BME280;63518;49.572;1.106;2022-11-27T04:11:52;99945.72;;;7.75;83.43
74960;BME280;63518;49.572;1.106;2022-11-27T04:14:23;99952.06;;;7.80;83.94
74960;BME280;63518;49.572;1.106;2022-11-27T04:16:51;99946.75;;;7.74;83.89
74960;BME280;63518;49.572;1.106;2022-11-27T04:19:19;99955.31;;;7.94;83.20
74960;BME280;63518;49.572;1.106;2022-11-27T04:21:47;99940.22;;;7.58;83.71
74960;BME280;63518;49.572;1.106;2022-11-27T04:24:15;99950.66;;;7.61;84.55
74960;BME280;63518;49.572;1.106;2022-11-27T04:26:44;99942.72;;;7.76;83.69
74960;BME280;63518;49.572;1.106;2022-11-27T04:29:14;99956.56;;;7.87;82.89
74960;BME280;63518;49.572;1.106;2022-11-27T04:31:42;99935.88;;;7.96;82.99
74960;BME280;63518;49.572;1.106;2022-11-27T04:34:11;99931.84;;;7.98;82.40
74960;BME280;63518;49.572;1.106;2022-11-27T04:36:39;99943.44;;;7.89;83.06
74960;BME280;63518;49.572;1.106;2022-11-27T04:39:07;99936.66;;;7.57;84.51
74960;BME280;63518;49.572;1.106;2022-11-27T04:41:37;99937.16;;;7.71;84.53
74960;BME280;63518;49.572;1.106;2022-11-27T04:44:05;99927.66;;;7.96;84.29
74960;BME280;63518;49.572;1.106;2022-11-27T04:46:35;99906.63;;;7.79;84.52
74960;BME280;63518;49.572;1.106;2022-11-27T04:49:04;99927.94;;;7.77;84.55
74960;BME280;63518;49.572;1.106;2022-11-27T04:51:33;99909.31;;;7.74;85.49
74960;BME280;63518;49.572;1.106;2022-11-27T04:54:02;99896.25;;;7.81;84.45
74960;BME280;63518;49.572;1.106;2022-11-27T04:56:31;99913.16;;;7.95;83.51
74960;BME280;63518;49.572;1.106;2022-11-27T04:59:00;99893.69;;;7.58;84.89
74960;BME280;63518;49.572;1.106;2022-11-27T05:01:29;99891.81;;;7.59;84.76
74960;BME280;63518;49.572;1.106;2022-11-27T05:03:58;99899.81;;;7.65;85.15
74960;BME280;63518;49.572;1.106;2022-11-27T05:06:28;99900.56;;;7.94;84.74
74960;BME280;63518;49.572;1.106;2022-11-27T05:08:57;99880.34;;;7.62;84.46
74960;BME280;63518;49.572;1.106;2022-11-27T05:11:30;99870.97;;;7.41;84.52
74960;BME280;63518;49.572;1.106;2022-11-27T05:13:58;99883.75;;;7.52;85.23
74960;BME280;63518;49.572;1.106;2022-11-27T05:16:47;99896.91;;;7.89;85.11
74960;BME280;63518;49.572;1.106;2022-11-27T05:19:16;99888.59;;;8.00;84.47
74960;BME280;63518;49.572;1.106;2022-11-27T05:21:46;99887.88;;;7.71;84.21
74960;BME280;63518;49.572;1.106;2022-11-27T05:24:17;99889.13;;;7.64;85.26
74960;BME280;63518;49.572;1.106;2022-11-27T05:26:46;99880.63;;;7.43;85.68
74960;BME280;63518;49.572;1.106;2022-11-27T05:29:15;99892.16;;;8.01;84.36
74960;BME280;63518;49.572;1.106;2022-11-27T05:31:43;99881.84;;;7.52;84.54
74960;BME280;63518;49.572;1.106;2022-11-27T05:34:12;99886.41;;;7.64;85.56
74960;BME280;63518;49.572;1.106;2022-11-27T05:36:44;99886.16;;;7.65;85.10
74960;BME280;63518;49.572;1.106;2022-11-27T05:39:13;99873.22;;;7.61;84.10
74960;BME280;63518;49.572;1.106;2022-11-27T05:41:42;99880.66;;;7.65;84.35
74960;BME280;63518;49.572;1.106;2022-11-27T05:44:12;99883.34;;;7.60;85.29
74960;BME280;63518;49.572;1.106;2022-11-27T05:46:42;99867.59;;;7.67;85.35
74960;BME280;63518;49.572;1.106;2022-11-27T05:49:11;99879.16;;;7.91;84.49
74960;BME280;63518;49.572;1.106;2022-11-27T05:51:39;99887.66;;;7.56;85.22
74960;BME280;63518;49.572;1.106;2022-11-27T05:54:09;99877.00;;;7.93;84.74
74960;BME280;63518;49.572;1.106;2022-11-27T05:56:37;99871.69;;;7.87;84.76
74960;BME280;63518;49.572;1.106;2022-11-27T05:59:06;99874.28;;;7.76;85.12
74960;BME280;63518;49.572;1.106;2022-11-27T06:01:35;99871.97;;;7.68;84.77
74960;BME280;63518;49.572;1.106;2022-11-27T06:04:04;99858.78;;;7.82;84.70
74960;BME280;63518;49.572;1.106;2022-11-27T06:06:34;99862.22;;;7.94;84.68
74960;BME280;63518;49.572;1.106;2022-11-27T06:09:02;99850.75;;;7.75;85.43
74960;BME280;63518;49.572;1.106;2022-11-27T06:11:38;99857.09;;;7.81;84.37
74960;BME280;63518;49.572;1.106;2022-11-27T06:14:08;99838.44;;;7.78;85.15
74960;BME280;63518;49.572;1.106;2022-11-27T06:16:39;99844.66;;;7.73;85.62
74960;BME280;63518;49.572;1.106;2022-11-27T06:19:09;99829.13;;;7.40;86.24
74960;BME280;63518;49.572;1.106;2022-11-27T06:21:37;99845.31;;;7.80;85.61
74960;BME280;63518;49.572;1.106;2022-11-27T06:24:07;99857.59;;;7.78;85.58
74960;BME280;63518;49.572;1.106;2022-11-27T06:26:37;99851.19;;;7.89;84.86
74960;BME280;63518;49.572;1.106;2022-11-27T06:29:05;99823.84;;;7.50;85.10
74960;BME280;63518;49.572;1.106;2022-11-27T06:31:35;99863.47;;;7.87;84.77
74960;BME280;63518;49.572;1.106;2022-11-27T06:34:05;99837.66;;;7.61;85.43
74960;BME280;63518;49.572;1.106;2022-11-27T06:36:36;99859.38;;;7.67;85.20
74960;BME280;63518;49.572;1.106;2022-11-27T06:39:06;99842.97;;;7.89;85.24
74960;BME280;63518;49.572;1.106;2022-11-27T06:41:34;99836.38;;;7.85;85.39
74960;BME280;63518;49.572;1.106;2022-11-27T06:44:05;99836.63;;;7.83;84.81
74960;BME280;63518;49.572;1.106;2022-11-27T06:46:33;99842.44;;;7.70;86.01
74960;BME280;63518;49.572;1.106;2022-11-27T06:49:03;99831.00;;;7.95;84.22
74960;BME280;63518;49.572;1.106;2022-11-27T06:51:32;99848.44;;;7.89;84.25
74960;BME280;63518;49.572;1.106;2022-11-27T06:54:01;99841.00;;;7.84;84.87
74960;BME280;63518;49.572;1.106;2022-11-27T06:56:32;99830.38;;;7.88;84.84
74960;BME280;63518;49.572;1.106;2022-11-27T06:59:01;99818.31;;;8.06;83.73
74960;BME280;63518;49.572;1.106;2022-11-27T07:01:55;99829.50;;;7.82;84.48
74960;BME280;63518;49.572;1.106;2022-11-27T07:04:24;99813.72;;;7.73;85.72
74960;BME280;63518;49.572;1.106;2022-11-27T07:07:04;99812.94;;;7.55;86.64
74960;BME280;63518;49.572;1.106;2022-11-27T07:09:33;99815.16;;;7.97;85.39
74960;BME280;63518;49.572;1.106;2022-11-27T07:12:03;99808.88;;;7.58;85.68
74960;BME280;63518;49.572;1.106;2022-11-27T07:14:36;99783.34;;;7.91;85.74
74960;BME280;63518;49.572;1.106;2022-11-27T07:17:06;99802.78;;;7.73;85.54
74960;BME280;63518;49.572;1.106;2022-11-27T07:19:34;99791.03;;;7.94;84.70
74960;BME280;63518;49.572;1.106;2022-11-27T07:22:03;99804.75;;;7.55;85.88
74960;BME280;63518;49.572;1.106;2022-11-27T07:24:32;99806.69;;;7.77;85.76
74960;BME280;63518;49.572;1.106;2022-11-27T07:27:03;99806.91;;;7.92;85.90
74960;BME280;63518;49.572;1.106;2022-11-27T07:29:38;99793.78;;;7.55;85.47
74960;BME280;63518;49.572;1.106;2022-11-27T07:32:25;99799.34;;;7.61;86.43
74960;BME280;63518;49.572;1.106;2022-11-27T07:34:53;99802.72;;;7.90;84.90
74960;BME280;63518;49.572;1.106;2022-11-27T07:37:24;99787.66;;;7.87;84.67
74960;BME280;63518;49.572;1.106;2022-11-27T07:39:59;99793.50;;;7.74;85.84
74960;BME280;63518;49.572;1.106;2022-11-27T07:42:49;99782.44;;;7.86;85.95
74960;BME280;63518;49.572;1.106;2022-11-27T07:45:17;99788.59;;;7.98;84.75
74960;BME280;63518;49.572;1.106;2022-11-27T07:47:45;99797.78;;;7.87;85.58
74960;BME280;63518;49.572;1.106;2022-11-27T07:50:14;99785.97;;;7.64;85.91
74960;BME280;63518;49.572;1.106;2022-11-27T07:52:43;99766.56;;;7.66;86.83
74960;BME280;63518;49.572;1.106;2022-11-27T07:55:12;99783.91;;;7.93;85.61
74960;BME280;63518;49.572;1.106;2022-11-27T07:57:45;99750.75;;;7.68;86.34
74960;BME280;63518;49.572;1.106;2022-11-27T08:00:18;99773.41;;;8.07;85.25
74960;BME280;63518;49.572;1.106;2022-11-27T08:02:50;99749.06;;;7.89;85.65
74960;BME280;63518;49.572;1.106;2022-11-27T08:05:20;99760.63;;;7.91;84.30
74960;BME280;63518;49.572;1.106;2022-11-27T08:07:49;99781.50;;;7.75;85.11
74960;BME280;63518;49.572;1.106;2022-11-27T08:10:20;99767.84;;;7.80;85.75
74960;BME280;63518;49.572;1.106;2022-11-27T08:12:50;99775.69;;;7.93;85.29
74960;BME280;63518;49.572;1.106;2022-11-27T08:15:18;99779.63;;;8.24;84.12
74960;BME280;63518;49.572;1.106;2022-11-27T08:17:45;99778.16;;;7.95;85.32
74960;BME280;63518;49.572;1.106;2022-11-27T08:20:17;99775.44;;;8.17;84.82
74960;BME280;63518;49.572;1.106;2022-11-27T08:22:49;99777.53;;;8.09;84.09
74960;BME280;63518;49.572;1.106;2022-11-27T08:25:23;99775.88;;;8.08;85.22
74960;BME280;63518;49.572;1.106;2022-11-27T08:27:50;99769.38;;;8.15;84.43
74960;BME280;63518;49.572;1.106;2022-11-27T08:30:18;99751.91;;;8.43;83.49
74960;BME280;63518;49.572;1.106;2022-11-27T08:32:45;99759.25;;;8.15;84.20
74960;BME280;63518;49.572;1.106;2022-11-27T08:35:15;99755.06;;;8.07;85.53
74960;BME280;63518;49.572;1.106;2022-11-27T08:37:44;99762.66;;;8.00;86.16
74960;BME280;63518;49.572;1.106;2022-11-27T08:40:11;99763.78;;;8.04;84.97
74960;BME280;63518;49.572;1.106;2022-11-27T08:42:38;99768.97;;;8.28;85.28
74960;BME280;63518;49.572;1.106;2022-11-27T08:45:06;99764.78;;;8.20;84.20
74960;BME280;63518;49.572;1.106;2022-11-27T08:47:34;99766.88;;;8.13;85.92
74960;BME280;63518;49.572;1.106;2022-11-27T08:50:01;99769.44;;;7.98;85.48
74960;BME280;63518;49.572;1.106;2022-11-27T08:52:31;99774.72;;;8.26;84.91
74960;BME280;63518;49.572;1.106;2022-11-27T08:54:58;99771.44;;;8.29;84.75
74960;BME280;63518;49.572;1.106;2022-11-27T08:57:25;99763.28;;;8.34;85.13
74960;BME280;63518;49.572;1.106;2022-11-27T08:59:53;99764.84;;;8.47;84.25
74960;BME280;63518;49.572;1.106;2022-11-27T09:02:21;99766.16;;;8.45;84.18
74960;BME280;63518;49.572;1.106;2022-11-27T09:04:51;99775.00;;;8.52;83.96
74960;BME280;63518;49.572;1.106;2022-11-27T09:07:21;99771.09;;;8.43;83.60
74960;BME280;63518;49.572;1.106;2022-11-27T09:09:48;99761.84;;;8.49;83.75
74960;BME280;63518;49.572;1.106;2022-11-27T09:12:15;99757.34;;;8.37;85.13
74960;BME280;63518;49.572;1.106;2022-11-27T09:14:43;99753.19;;;8.35;84.05
74960;BME280;63518;49.572;1.106;2022-11-27T09:17:12;99755.00;;;8.29;84.91
74960;BME280;63518;49.572;1.106;2022-11-27T09:19:40;99758.44;;;8.15;86.07
74960;BME280;63518;49.572;1.106;2022-11-27T09:22:16;99752.06;;;8.09;85.22
74960;BME280;63518;49.572;1.106;2022-11-27T09:24:45;99743.88;;;8.36;84.90
74960;BME280;63518;49.572;1.106;2022-11-27T09:27:13;99740.31;;;8.35;85.20
74960;BME280;63518;49.572;1.106;2022-11-27T09:29:40;99738.53;;;8.46;84.78
74960;BME280;63518;49.572;1.106;2022-11-27T09:32:07;99740.31;;;8.35;84.54
74960;BME280;63518;49.572;1.106;2022-11-27T09:34:35;99732.00;;;8.52;84.92
74960;BME280;63518;49.572;1.106;2022-11-27T09:37:04;99735.19;;;8.17;85.50
74960;BME280;63518;49.572;1.106;2022-11-27T09:39:33;99727.22;;;8.37;85.35
74960;BME280;63518;49.572;1.106;2022-11-27T09:42:00;99732.00;;;8.52;85.51
74960;BME280;63518;49.572;1.106;2022-11-27T09:52:27;99719.84;;;8.43;85.07
74960;BME280;63518;49.572;1.106;2022-11-27T09:58:13;99730.75;;;8.65;84.84
74960;BME280;63518;49.572;1.106;2022-11-27T10:00:42;99736.75;;;8.35;85.96
74960;BME280;63518;49.572;1.106;2022-11-27T10:03:15;99744.03;;;8.24;84.96
74960;BME280;63518;49.572;1.106;2022-11-27T10:05:47;99735.81;;;8.24;85.61
74960;BME280;63518;49.572;1.106;2022-11-27T10:20:00;99738.88;;;8.55;84.51
74960;BME280;63518;49.572;1.106;2022-11-27T10:25:22;99727.94;;;8.60;84.77
74960;BME280;63518;49.572;1.106;2022-11-27T10:30:49;99720.81;;;8.59;84.56
74960;BME280;63518;49.572;1.106;2022-11-27T10:33:20;99710.00;;;8.74;85.14
74960;BME280;63518;49.572;1.106;2022-11-27T10:36:02;99710.88;;;8.48;85.20
74960;BME280;63518;49.572;1.106;2022-11-27T10:44:53;99694.97;;;8.50;85.03
74960;BME280;63518;49.572;1.106;2022-11-27T10:47:30;99690.50;;;8.71;83.92
74960;BME280;63518;49.572;1.106;2022-11-27T10:50:25;99689.09;;;8.68;85.87
74960;BME280;63518;49.572;1.106;2022-11-27T10:53:18;99682.84;;;8.73;85.48
74960;BME280;63518;49.572;1.106;2022-11-27T11:01:40;99674.81;;;8.98;83.43
74960;BME280;63518;49.572;1.106;2022-11-27T11:04:09;99665.94;;;8.49;85.22
74960;BME280;63518;49.572;1.106;2022-11-27T11:09:53;99662.97;;;8.55;86.47
74960;BME280;63518;49.572;1.106;2022-11-27T11:12:27;99654.78;;;8.98;83.64
74960;BME280;63518;49.572;1.106;2022-11-27T11:15:12;99644.63;;;8.29;86.65
74960;BME280;63518;49.572;1.106;2022-11-27T11:17:44;99646.53;;;8.55;85.73
74960;BME280;63518;49.572;1.106;2022-11-27T11:20:13;99642.84;;;8.77;85.60
74960;BME280;63518;49.572;1.106;2022-11-27T11:22:47;99637.91;;;8.74;84.12
74960;BME280;63518;49.572;1.106;2022-11-27T11:25:17;99635.69;;;8.71;86.14
74960;BME280;63518;49.572;1.106;2022-11-27T11:27:49;99638.22;;;8.82;85.67
74960;BME280;63518;49.572;1.106;2022-11-27T11:30:25;99638.09;;;8.62;84.63
74960;BME280;63518;49.572;1.106;2022-11-27T11:32:58;99630.50;;;8.74;84.57
74960;BME280;63518;49.572;1.106;2022-11-27T11:35:32;99620.50;;;8.95;85.53
74960;BME280;63518;49.572;1.106;2022-11-27T11:38:14;99620.97;;;8.82;84.13
74960;BME280;63518;49.572;1.106;2022-11-27T11:40:42;99607.94;;;9.04;84.08
74960;BME280;63518;49.572;1.106;2022-11-27T11:43:25;99597.44;;;8.91;83.91
74960;BME280;63518;49.572;1.106;2022-11-27T11:45:52;99602.81;;;9.18;84.50
74960;BME280;63518;49.572;1.106;2022-11-27T11:48:26;99595.00;;;8.94;84.31
74960;BME280;63518;49.572;1.106;2022-11-27T11:50:54;99588.81;;;8.72;83.89
74960;BME280;63518;49.572;1.106;2022-11-27T11:53:34;99592.53;;;8.98;85.03
74960;BME280;63518;49.572;1.106;2022-11-27T11:58:54;99582.69;;;9.02;84.75
74960;BME280;63518;49.572;1.106;2022-11-27T12:12:00;99547.06;;;9.02;82.97
74960;BME280;63518;49.572;1.106;2022-11-27T12:14:42;99547.66;;;9.19;83.65
74960;BME280;63518;49.572;1.106;2022-11-27T12:17:14;99543.25;;;9.13;83.09
74960;BME280;63518;49.572;1.106;2022-11-27T12:20:04;99543.44;;;8.97;84.77
74960;BME280;63518;49.572;1.106;2022-11-27T12:34:00;99487.03;;;9.21;82.90
74960;BME280;63518;49.572;1.106;2022-11-27T12:42:24;99490.34;;;9.18;82.86
74960;BME280;63518;49.572;1.106;2022-11-27T12:50:57;99468.91;;;9.15;84.50
74960;BME280;63518;49.572;1.106;2022-11-27T12:54:05;99465.09;;;9.21;84.35
74960;BME280;63518;49.572;1.106;2022-11-27T12:56:51;99451.41;;;9.26;83.88
74960;BME280;63518;49.572;1.106;2022-11-27T12:59:29;99444.47;;;8.98;85.05
74960;BME280;63518;49.572;1.106;2022-11-27T13:05:23;99446.09;;;8.94;85.92
74960;BME280;63518;49.572;1.106;2022-11-27T13:08:15;99453.84;;;9.17;85.43
74960;BME280;63518;49.572;1.106;2022-11-27T13:11:07;99440.38;;;9.06;84.29
74960;BME280;63518;49.572;1.106;2022-11-27T13:14:15;99433.00;;;9.21;83.41
74960;BME280;63518;49.572;1.106;2022-11-27T13:20:03;99440.41;;;9.31;84.89
74960;BME280;63518;49.572;1.106;2022-11-27T13:22:57;99425.63;;;9.42;83.42
74960;BME280;63518;49.572;1.106;2022-11-27T13:25:44;99424.72;;;9.06;84.23
74960;BME280;63518;49.572;1.106;2022-11-27T13:28:29;99430.44;;;8.89;84.75
74960;BME280;63518;49.572;1.106;2022-11-27T13:31:05;99423.72;;;9.33;83.98
74960;BME280;63518;49.572;1.106;2022-11-27T13:33:41;99417.91;;;9.09;86.21
74960;BME280;63518;49.572;1.106;2022-11-27T13:36:33;99417.63;;;9.10;85.03
74960;BME280;63518;49.572;1.106;2022-11-27T13:39:22;99414.91;;;9.36;83.00
74960;BME280;63518;49.572;1.106;2022-11-27T13:47:24;99394.59;;;9.32;84.27
74960;BME280;63518;49.572;1.106;2022-11-27T13:50:07;99388.84;;;9.28;84.76
74960;BME280;63518;49.572;1.106;2022-11-27T13:52:58;99375.09;;;9.03;84.77
74960;BME280;63518;49.572;1.106;2022-11-27T13:55:51;99378.44;;;9.40;84.23
74960;BME280;63518;49.572;1.106;2022-11-27T13:58:45;99374.59;;;9.51;83.43
74960;BME280;63518;49.572;1.106;2022-11-27T14:01:14;99372.38;;;9.38;83.74
74960;BME280;63518;49.572;1.106;2022-11-27T14:03:42;99366.91;;;9.64;84.03
74960;BME280;63518;49.572;1.106;2022-11-27T14:06:25;99367.72;;;9.54;82.77
74960;BME280;63518;49.572;1.106;2022-11-27T14:09:04;99360.03;;;9.46;83.35
74960;BME280;63518;49.572;1.106;2022-11-27T14:18:14;99349.88;;;9.31;83.94
74960;BME280;63518;49.572;1.106;2022-11-27T14:20:53;99340.28;;;9.29;83.92
74960;BME280;63518;49.572;1.106;2022-11-27T14:27:25;99340.28;;;9.39;83.49
74960;BME280;63518;49.572;1.106;2022-11-27T14:30:29;99331.22;;;9.28;83.61
74960;BME280;63518;49.572;1.106;2022-11-27T14:33:43;99327.41;;;9.09;84.38
74960;BME280;63518;49.572;1.106;2022-11-27T14:36:35;99324.88;;;9.63;82.55
74960;BME280;63518;49.572;1.106;2022-11-27T14:39:05;99326.31;;;9.40;85.27
74960;BME280;63518;49.572;1.106;2022-11-27T14:41:35;99313.94;;;9.28;85.08
74960;BME280;63518;49.572;1.106;2022-11-27T14:44:13;99317.78;;;9.37;83.86
74960;BME280;63518;49.572;1.106;2022-11-27T14:46:51;99309.84;;;9.35;83.42
74960;BME280;63518;49.572;1.106;2022-11-27T14:49:25;99310.41;;;9.32;84.38
74960;BME280;63518;49.572;1.106;2022-11-27T14:52:06;99314.75;;;9.54;85.13
74960;BME280;63518;49.572;1.106;2022-11-27T14:54:39;99304.34;;;9.20;86.11
74960;BME280;63518;49.572;1.106;2022-11-27T15:00:17;99295.28;;;9.45;85.09
74960;BME280;63518;49.572;1.106;2022-11-27T15:03:34;99288.38;;;9.68;84.46
74960;BME280;63518;49.572;1.106;2022-11-27T15:06:05;99282.91;;;9.58;83.84
74960;BME280;63518;49.572;1.106;2022-11-27T15:08:44;99282.66;;;9.49;85.34
74960;BME280;63518;49.572;1.106;2022-11-27T15:11:34;99276.38;;;9.33;85.63
74960;BME280;63518;49.572;1.106;2022-11-27T15:14:35;99269.16;;;9.73;86.05
74960;BME280;63518;49.572;1.106;2022-11-27T15:17:11;99262.34;;;9.45;84.88
74960;BME280;63518;49.572;1.106;2022-11-27T15:20:23;99262.59;;;9.59;85.03
74960;BME280;63518;49.572;1.106;2022-11-27T15:22:55;99255.22;;;9.44;87.05
74960;BME280;63518;49.572;1.106;2022-11-27T15:25:41;99239.59;;;9.29;85.84
74960;BME280;63518;49.572;1.106;2022-11-27T15:28:38;99238.16;;;9.67;86.23
74960;BME280;63518;49.572;1.106;2022-11-27T15:42:09;99229.91;;;9.67;85.10
74960;BME280;63518;49.572;1.106;2022-11-27T15:44:45;99230.66;;;9.88;86.63
74960;BME280;63518;49.572;1.106;2022-11-27T15:47:36;99236.13;;;9.93;85.48
74960;BME280;63518;49.572;1.106;2022-11-27T15:50:16;99229.28;;;9.86;86.13
74960;BME280;63518;49.572;1.106;2022-11-27T15:53:00;99226.31;;;9.77;85.81
74960;BME280;63518;49.572;1.106;2022-11-27T15:55:35;99226.00;;;9.84;86.45
74960;BME280;63518;49.572;1.106;2022-11-27T15:58:06;99224.06;;;9.89;87.22
74960;BME280;63518;49.572;1.106;2022-11-27T16:00:38;99213.56;;;10.06;85.98
74960;BME280;63518;49.572;1.106;2022-11-27T16:03:08;99221.16;;;9.65;87.00